Time;durP1;ratioP1;P1;durP2;ratioP2;P2;SDS_P1;SDS_P2;PMS_P1;PMS_P2;Temp;Humidity;BMP_temperature;BMP_pressure;BME280_temperature;BME280_humidity;BME280_pressure;Samples;Min_cycle;Max_cycle;Signal;HPM_P1;HPM_P2
2023/04/26 00:00:23;;;;;;;7.53;3.25;;;;;;;;;;5035494;28;20056;-65
2023/04/26 00:02:53;;;;;;;7.53;1.50;;;;;;;;;;5071663;28;20489;-66
2023/04/26 00:05:19;;;;;;;3.08;1.20;;;;;;;;;;5049068;28;20045;-66
2023/04/26 00:07:45;;;;;;;5.75;1.70;;;;;;;;;;5072287;28;20155;-65
2023/04/26 00:10:11;;;;;;;6.78;1.85;;;;;;;;;;5073503;28;20048;-66
2023/04/26 00:12:37;;;;;;;11.30;1.98;;;;;;;;;;5061238;28;20037;-65
2023/04/26 00:15:04;;;;;;;7.47;1.40;;;;;;;;;;5057343;28;20058;-66
2023/04/26 00:17:30;;;;;;;4.93;1.30;;;;;;;;;;5071265;28;20041;-65
2023/04/26 00:19:56;;;;;;;3.22;1.48;;;;;;;;;;5085103;28;20083;-65
2023/04/26 00:22:23;;;;;;;5.68;1.27;;;;;;;;;;5034028;28;20048;-66
2023/04/26 00:24:49;;;;;;;6.75;1.35;;;;;;;;;;5076617;28;20044;-66
2023/04/26 00:27:15;;;;;;;5.57;1.38;;;;;;;;;;5072100;28;20048;-66
2023/04/26 00:29:42;;;;;;;8.52;1.35;;;;;;;;;;5045415;28;20077;-65
2023/04/26 00:32:08;;;;;;;3.13;1.10;;;;;;;;;;5068815;28;20041;-65
2023/04/26 00:34:37;;;;;;;6.40;1.23;;;;;;;;;;5070947;28;20110;-65
2023/04/26 00:37:04;;;;;;;5.22;1.45;;;;;;;;;;5053974;28;20050;-65
2023/04/26 00:39:30;;;;;;;7.93;1.48;;;;;;;;;;5035308;28;20080;-66
2023/04/26 00:41:56;;;;;;;6.47;1.45;;;;;;;;;;5040721;28;20096;-65
2023/04/26 00:44:23;;;;;;;4.47;1.27;;;;;;;;;;5062474;28;20056;-64
2023/04/26 00:46:51;;;;;;;7.35;1.70;;;;;;;;;;5035450;28;20543;-66
2023/04/26 00:49:19;;;;;;;4.47;1.80;;;;;;;;;;5027534;28;20044;-66
2023/04/26 00:51:45;;;;;;;10.98;3.80;;;;;;;;;;5072828;28;20492;-66
2023/04/26 00:54:15;;;;;;;11.20;2.90;;;;;;;;;;5061761;28;20040;-65
2023/04/26 00:56:41;;;;;;;5.78;2.40;;;;;;;;;;5052890;28;20090;-66
2023/04/26 00:59:07;;;;;;;7.07;2.30;;;;;;;;;;5073365;28;20472;-66
2023/04/26 01:01:36;;;;;;;10.77;2.05;;;;;;;;;;5054545;28;20098;-65
2023/04/26 01:04:03;;;;;;;9.15;1.73;;;;;;;;;;5035899;28;20048;-66
2023/04/26 01:06:32;;;;;;;6.35;1.52;;;;;;;;;;5071406;28;20496;-65
2023/04/26 01:09:00;;;;;;;8.65;1.75;;;;;;;;;;5055531;28;20688;-66
2023/04/26 01:11:26;;;;;;;13.38;1.88;;;;;;;;;;5070308;28;20048;-65
2023/04/26 01:13:52;;;;;;;5.57;1.75;;;;;;;;;;5071428;28;20089;-65
2023/04/26 01:16:19;;;;;;;5.15;1.90;;;;;;;;;;5058824;28;20127;-64
2023/04/26 01:18:51;;;;;;;6.07;1.50;;;;;;;;;;5044206;28;20049;-66
2023/04/26 01:21:24;;;;;;;5.03;1.85;;;;;;;;;;5087857;28;20558;-65
2023/04/26 01:23:50;;;;;;;6.00;1.60;;;;;;;;;;5057830;28;20052;-65
2023/04/26 01:26:16;;;;;;;5.72;1.83;;;;;;;;;;5060724;28;20096;-65
2023/04/26 01:28:43;;;;;;;8.30;1.77;;;;;;;;;;5047523;28;20036;-66
2023/04/26 01:31:09;;;;;;;7.53;1.70;;;;;;;;;;5066866;28;20036;-65
2023/04/26 01:33:35;;;;;;;4.90;2.08;;;;;;;;;;5056088;28;20174;-66
2023/04/26 01:36:01;;;;;;;4.13;1.48;;;;;;;;;;5075944;28;20055;-65
2023/04/26 01:38:27;;;;;;;5.57;2.00;;;;;;;;;;5060745;28;20044;-65
2023/04/26 01:40:53;;;;;;;6.65;1.90;;;;;;;;;;5059866;28;20408;-66
2023/04/26 01:43:21;;;;;;;6.93;1.65;;;;;;;;;;5057295;28;20067;-65
2023/04/26 01:45:47;;;;;;;6.93;1.60;;;;;;;;;;5066574;28;20040;-65
2023/04/26 01:48:13;;;;;;;11.90;3.38;;;;;;;;;;5080976;28;20045;-66
2023/04/26 01:50:39;;;;;;;5.75;1.85;;;;;;;;;;5063378;28;20052;-65
2023/04/26 01:53:05;;;;;;;5.88;2.65;;;;;;;;;;5039393;28;20052;-66
2023/04/26 01:55:31;;;;;;;8.25;3.50;;;;;;;;;;5076454;28;20497;-65
2023/04/26 01:57:57;;;;;;;8.20;4.65;;;;;;;;;;5079129;28;20062;-65
2023/04/26 02:00:23;;;;;;;11.18;4.78;;;;;;;;;;5077170;28;20700;-66
2023/04/26 02:02:49;;;;;;;9.98;4.25;;;;;;;;;;5078519;28;20529;-66
2023/04/26 02:05:15;;;;;;;9.68;3.97;;;;;;;;;;5068493;28;20097;-66
2023/04/26 02:07:41;;;;;;;8.45;3.80;;;;;;;;;;5065848;28;20060;-66
2023/04/26 02:10:08;;;;;;;15.82;3.85;;;;;;;;;;5062911;28;20056;-64
2023/04/26 02:12:34;;;;;;;10.98;3.92;;;;;;;;;;5060285;28;20535;-66
2023/04/26 02:15:00;;;;;;;7.80;3.47;;;;;;;;;;5077072;28;20428;-66
2023/04/26 02:17:28;;;;;;;10.60;3.75;;;;;;;;;;5053766;28;20139;-66
2023/04/26 02:19:54;;;;;;;6.68;4.15;;;;;;;;;;5077284;28;20059;-66
2023/04/26 02:22:22;;;;;;;10.90;5.15;;;;;;;;;;5088206;28;20043;-65
2023/04/26 02:24:49;;;;;;;14.05;5.60;;;;;;;;;;5063826;28;20068;-66
2023/04/26 02:27:15;;;;;;;10.52;5.18;;;;;;;;;;5043725;28;20052;-65
2023/04/26 02:29:41;;;;;;;15.23;4.70;;;;;;;;;;5072778;28;20044;-65
2023/04/26 02:32:07;;;;;;;8.90;3.35;;;;;;;;;;5073361;28;21371;-65
2023/04/26 02:34:33;;;;;;;8.43;2.60;;;;;;;;;;5074190;28;20067;-65
2023/04/26 02:36:59;;;;;;;7.90;2.47;;;;;;;;;;5068653;28;20052;-64
2023/04/26 02:39:26;;;;;;;5.43;2.08;;;;;;;;;;5073161;28;20044;-65
2023/04/26 02:41:52;;;;;;;8.98;2.67;;;;;;;;;;5068845;28;20057;-66
2023/04/26 02:44:18;;;;;;;8.27;2.03;;;;;;;;;;5057855;28;20060;-65
2023/04/26 02:46:44;;;;;;;6.63;1.88;;;;;;;;;;5057699;28;20048;-66
2023/04/26 02:49:10;;;;;;;5.05;1.77;;;;;;;;;;5059256;28;20073;-65
2023/04/26 02:51:36;;;;;;;10.45;2.83;;;;;;;;;;5052025;28;20078;-66
2023/04/26 02:54:02;;;;;;;5.28;1.90;;;;;;;;;;5070488;28;20062;-65
2023/04/26 02:56:28;;;;;;;6.65;1.80;;;;;;;;;;5082892;28;20040;-65
2023/04/26 02:58:54;;;;;;;6.53;2.08;;;;;;;;;;5061267;28;20052;-65
2023/04/26 03:01:20;;;;;;;8.00;2.63;;;;;;;;;;5081772;28;20378;-65
2023/04/26 03:03:46;;;;;;;12.60;2.65;;;;;;;;;;5073605;28;20055;-66
2023/04/26 03:06:12;;;;;;;4.72;2.17;;;;;;;;;;5073848;28;20052;-66
2023/04/26 03:08:39;;;;;;;7.40;2.03;;;;;;;;;;5079877;28;20564;-66
2023/04/26 03:11:05;;;;;;;5.38;1.98;;;;;;;;;;5056031;28;20150;-66
2023/04/26 03:13:31;;;;;;;5.32;2.08;;;;;;;;;;5076932;28;20044;-66
2023/04/26 03:15:57;;;;;;;4.60;1.80;;;;;;;;;;5067101;28;20473;-65
2023/04/26 03:18:23;;;;;;;11.35;2.75;;;;;;;;;;5072306;28;20127;-65
2023/04/26 03:20:50;;;;;;;6.28;1.63;;;;;;;;;;5078391;28;20119;-66
2023/04/26 03:23:16;;;;;;;9.75;1.80;;;;;;;;;;5052837;28;20053;-65
2023/04/26 03:25:42;;;;;;;4.15;1.73;;;;;;;;;;5056062;28;20052;-65
2023/04/26 03:28:08;;;;;;;11.38;2.05;;;;;;;;;;5073092;28;20408;-66
2023/04/26 03:30:34;;;;;;;6.68;1.75;;;;;;;;;;5072630;28;20040;-66
2023/04/26 03:33:00;;;;;;;9.00;1.95;;;;;;;;;;5054724;28;20086;-65
2023/04/26 03:35:26;;;;;;;8.13;1.70;;;;;;;;;;5062962;28;20052;-66
2023/04/26 03:37:52;;;;;;;7.63;2.13;;;;;;;;;;5056817;28;20412;-66
2023/04/26 03:40:18;;;;;;;4.18;2.13;;;;;;;;;;5034640;28;20071;-65
2023/04/26 03:42:45;;;;;;;6.35;2.00;;;;;;;;;;5066462;28;20048;-65
2023/04/26 03:45:11;;;;;;;6.05;2.42;;;;;;;;;;5077518;28;20048;-62
2023/04/26 03:47:37;;;;;;;6.85;1.90;;;;;;;;;;5053644;28;20044;-65
2023/04/26 03:50:03;;;;;;;6.82;1.90;;;;;;;;;;5057442;28;20395;-65
2023/04/26 03:52:29;;;;;;;7.60;2.13;;;;;;;;;;5056412;28;20040;-65
2023/04/26 03:54:55;;;;;;;5.35;2.00;;;;;;;;;;5092329;28;20052;-66
2023/04/26 03:57:21;;;;;;;8.73;2.67;;;;;;;;;;5065109;28;20067;-65
2023/04/26 03:59:47;;;;;;;5.93;1.90;;;;;;;;;;5065483;28;20048;-65
2023/04/26 04:02:13;;;;;;;8.95;2.45;;;;;;;;;;5053079;28;20122;-65
2023/04/26 04:04:39;;;;;;;6.90;1.88;;;;;;;;;;5051087;28;20041;-65
2023/04/26 04:07:06;;;;;;;7.30;2.65;;;;;;;;;;5044867;28;20499;-66
2023/04/26 04:09:32;;;;;;;5.30;3.00;;;;;;;;;;5075083;28;20400;-66
2023/04/26 04:11:58;;;;;;;7.57;2.88;;;;;;;;;;5087365;28;20409;-65
2023/04/26 04:14:24;;;;;;;6.82;2.10;;;;;;;;;;5071607;28;20105;-66
2023/04/26 04:16:50;;;;;;;8.48;4.00;;;;;;;;;;5075261;28;20098;-65
2023/04/26 04:19:16;;;;;;;6.40;3.20;;;;;;;;;;5054107;28;20044;-66
2023/04/26 04:21:42;;;;;;;10.52;2.45;;;;;;;;;;5077866;28;20408;-66
2023/04/26 04:24:08;;;;;;;6.43;2.90;;;;;;;;;;5071387;28;20126;-65
2023/04/26 04:26:34;;;;;;;5.15;2.58;;;;;;;;;;5053675;28;20492;-66
2023/04/26 04:29:07;;;;;;;7.32;2.33;;;;;;;;;;5059065;28;20177;-66
2023/04/26 04:31:34;;;;;;;7.85;2.25;;;;;;;;;;5061621;28;20051;-65
2023/04/26 04:34:00;;;;;;;8.70;2.10;;;;;;;;;;5054779;28;20096;-66
2023/04/26 04:36:26;;;;;;;6.50;2.90;;;;;;;;;;5057531;28;20127;-65
2023/04/26 04:38:52;;;;;;;11.18;2.55;;;;;;;;;;5066046;28;20473;-66
2023/04/26 04:41:21;;;;;;;9.30;2.13;;;;;;;;;;5088786;28;20123;-66
2023/04/26 04:43:47;;;;;;;9.32;1.92;;;;;;;;;;5079549;28;20047;-65
2023/04/26 04:46:13;;;;;;;7.85;2.00;;;;;;;;;;5048607;28;20072;-66
2023/04/26 04:48:39;;;;;;;3.80;1.90;;;;;;;;;;5048185;28;20137;-66
2023/04/26 04:51:05;;;;;;;6.63;3.03;;;;;;;;;;5064089;28;20489;-65
2023/04/26 04:53:31;;;;;;;7.88;1.92;;;;;;;;;;5062568;28;20190;-67
2023/04/26 04:55:57;;;;;;;7.10;2.50;;;;;;;;;;5082978;28;20043;-66
2023/04/26 04:58:23;;;;;;;3.25;1.35;;;;;;;;;;5076101;28;20515;-66
2023/04/26 05:00:52;;;;;;;2.92;1.88;;;;;;;;;;5054713;28;20052;-66
2023/04/26 05:03:18;;;;;;;6.28;1.63;;;;;;;;;;5061127;28;20472;-66
2023/04/26 05:05:44;;;;;;;6.30;1.52;;;;;;;;;;5053729;28;20052;-66
2023/04/26 05:08:11;;;;;;;4.82;1.48;;;;;;;;;;5042443;28;20063;-64
2023/04/26 05:10:37;;;;;;;3.10;1.58;;;;;;;;;;5035000;28;20088;-65
2023/04/26 05:13:04;;;;;;;4.32;1.60;;;;;;;;;;5065057;28;20045;-65
2023/04/26 05:15:30;;;;;;;6.70;2.42;;;;;;;;;;5043894;28;20044;-65
2023/04/26 05:17:58;;;;;;;7.57;2.67;;;;;;;;;;5059867;28;20051;-66
2023/04/26 05:20:24;;;;;;;7.93;2.97;;;;;;;;;;5073446;28;20052;-65
2023/04/26 05:22:50;;;;;;;5.82;2.15;;;;;;;;;;5059324;28;20103;-65
2023/04/26 05:25:16;;;;;;;5.03;1.80;;;;;;;;;;5071086;28;20128;-66
2023/04/26 05:27:44;;;;;;;5.25;1.95;;;;;;;;;;5031943;28;20555;-65
2023/04/26 05:30:11;;;;;;;5.03;1.90;;;;;;;;;;5056759;28;20048;-66
2023/04/26 05:32:37;;;;;;;10.68;2.60;;;;;;;;;;5069822;28;20044;-65
2023/04/26 05:35:03;;;;;;;7.43;2.47;;;;;;;;;;5050641;28;20048;-65
2023/04/26 05:37:30;;;;;;;8.50;2.33;;;;;;;;;;5058770;28;20056;-65
2023/04/26 05:39:56;;;;;;;7.78;2.28;;;;;;;;;;5059908;28;20078;-67
2023/04/26 05:42:22;;;;;;;6.75;2.22;;;;;;;;;;5048011;28;20045;-66
2023/04/26 05:44:48;;;;;;;5.32;2.25;;;;;;;;;;5026991;28;20051;-67
2023/04/26 05:47:14;;;;;;;4.03;2.03;;;;;;;;;;5063917;28;20113;-66
2023/04/26 05:49:40;;;;;;;8.63;2.15;;;;;;;;;;5070021;28;20405;-67
2023/04/26 05:52:06;;;;;;;13.07;2.88;;;;;;;;;;5070588;28;20040;-66
2023/04/26 05:54:32;;;;;;;14.25;2.10;;;;;;;;;;5036138;28;20040;-65
2023/04/26 05:56:58;;;;;;;6.10;1.85;;;;;;;;;;5053334;28;20047;-66
2023/04/26 05:59:24;;;;;;;5.65;1.60;;;;;;;;;;5069699;28;20109;-65
2023/04/26 06:01:50;;;;;;;3.97;1.52;;;;;;;;;;5052173;28;20052;-65
2023/04/26 06:04:16;;;;;;;6.65;1.63;;;;;;;;;;5072437;28;20404;-65
2023/04/26 06:06:42;;;;;;;12.20;2.53;;;;;;;;;;5089355;28;20426;-65
2023/04/26 06:09:08;;;;;;;5.18;1.63;;;;;;;;;;5035151;28;20056;-65
2023/04/26 06:11:34;;;;;;;8.13;1.73;;;;;;;;;;5067719;28;20040;-65
2023/04/26 06:14:00;;;;;;;4.55;1.33;;;;;;;;;;5074291;28;20051;-65
2023/04/26 06:16:26;;;;;;;6.50;2.03;;;;;;;;;;5066645;28;20127;-65
2023/04/26 06:18:52;;;;;;;6.32;1.67;;;;;;;;;;5067931;28;20052;-66
2023/04/26 06:21:19;;;;;;;6.97;1.25;;;;;;;;;;5072758;28;20048;-65
2023/04/26 06:23:45;;;;;;;4.97;1.80;;;;;;;;;;5055869;28;20051;-66
2023/04/26 06:26:11;;;;;;;4.43;1.55;;;;;;;;;;5038338;28;20158;-65
2023/04/26 06:28:37;;;;;;;6.60;1.65;;;;;;;;;;5056583;28;20051;-65
2023/04/26 06:31:03;;;;;;;6.38;2.05;;;;;;;;;;5056204;28;20462;-66
2023/04/26 06:33:29;;;;;;;5.80;2.60;;;;;;;;;;5039429;28;20476;-66
2023/04/26 06:35:55;;;;;;;10.18;1.90;;;;;;;;;;5073707;28;20093;-68
2023/04/26 06:38:21;;;;;;;4.50;1.70;;;;;;;;;;5054867;28;20036;-67
2023/04/26 06:40:47;;;;;;;8.45;1.90;;;;;;;;;;5054931;28;20059;-65
2023/04/26 06:43:14;;;;;;;6.25;2.50;;;;;;;;;;5083406;22;20045;-66
2023/04/26 06:45:40;;;;;;;5.38;1.60;;;;;;;;;;5018222;28;20102;-66
2023/04/26 06:48:07;;;;;;;5.57;1.42;;;;;;;;;;5036620;28;20040;-66
2023/04/26 06:50:33;;;;;;;3.00;1.73;;;;;;;;;;5054270;28;20055;-65
2023/04/26 06:52:59;;;;;;;4.25;1.50;;;;;;;;;;5052066;28;20068;-65
2023/04/26 06:55:25;;;;;;;3.67;1.20;;;;;;;;;;5013890;28;20044;-67
2023/04/26 06:57:51;;;;;;;6.28;1.20;;;;;;;;;;5047529;23;20067;-66
2023/04/26 07:00:17;;;;;;;7.72;1.20;;;;;;;;;;5072714;28;20186;-65
2023/04/26 07:02:43;;;;;;;8.50;1.17;;;;;;;;;;5072726;28;20489;-66
2023/04/26 07:05:09;;;;;;;6.22;1.50;;;;;;;;;;5054799;28;20071;-65
2023/04/26 07:07:36;;;;;;;6.63;1.52;;;;;;;;;;5039198;28;20040;-65
2023/04/26 07:10:02;;;;;;;11.68;1.90;;;;;;;;;;5064544;28;20040;-66
2023/04/26 07:12:28;;;;;;;8.70;1.60;;;;;;;;;;5053899;28;20045;-66
2023/04/26 07:14:54;;;;;;;2.50;1.05;;;;;;;;;;5073210;28;20048;-65
2023/04/26 07:17:21;;;;;;;2.40;0.90;;;;;;;;;;5071524;28;20049;-66
2023/04/26 07:19:47;;;;;;;7.68;1.77;;;;;;;;;;5072602;28;20064;-65
2023/04/26 07:22:13;;;;;;;3.78;1.20;;;;;;;;;;5038520;28;20052;-67
2023/04/26 07:24:39;;;;;;;3.38;1.08;;;;;;;;;;5073250;28;20048;-66
2023/04/26 07:27:05;;;;;;;5.13;1.50;;;;;;;;;;5068936;28;20060;-66
2023/04/26 07:29:31;;;;;;;8.77;1.20;;;;;;;;;;5071355;28;20048;-65
2023/04/26 07:31:57;;;;;;;4.00;0.90;;;;;;;;;;5054017;28;20067;-66
2023/04/26 07:34:24;;;;;;;6.82;1.45;;;;;;;;;;5072473;28;20401;-65
2023/04/26 07:36:50;;;;;;;6.20;1.33;;;;;;;;;;5054214;28;20049;-67
2023/04/26 07:39:16;;;;;;;5.53;1.70;;;;;;;;;;5037126;28;20046;-65
2023/04/26 07:41:42;;;;;;;5.72;0.90;;;;;;;;;;5053671;28;20123;-66
2023/04/26 07:44:10;;;;;;;4.55;0.98;;;;;;;;;;5055451;28;20057;-66
2023/04/26 07:46:36;;;;;;;3.42;1.05;;;;;;;;;;5036935;28;20135;-66
2023/04/26 07:49:02;;;;;;;5.25;1.13;;;;;;;;;;5051122;28;20052;-66
2023/04/26 07:51:28;;;;;;;5.38;1.10;;;;;;;;;;5041443;28;20125;-66
2023/04/26 07:53:54;;;;;;;4.47;1.48;;;;;;;;;;5070223;28;20128;-66
2023/04/26 07:56:22;;;;;;;7.70;1.95;;;;;;;;;;5061254;28;20080;-66
2023/04/26 07:58:49;;;;;;;6.10;1.02;;;;;;;;;;5035469;28;20063;-65
2023/04/26 08:01:15;;;;;;;5.13;1.30;;;;;;;;;;5065151;28;20428;-65
2023/04/26 08:03:41;;;;;;;5.88;1.23;;;;;;;;;;5061642;28;20056;-65
2023/04/26 08:06:07;;;;;;;2.95;1.10;;;;;;;;;;5052867;28;20044;-66
2023/04/26 08:08:39;;;;;;;3.72;1.05;;;;;;;;;;5071179;28;20044;-65
2023/04/26 08:11:11;;;;;;;4.45;1.02;;;;;;;;;;5038292;28;20098;-65
2023/04/26 08:13:37;;;;;;;7.57;1.17;;;;;;;;;;5071192;28;20049;-65
2023/04/26 08:16:03;;;;;;;4.80;1.25;;;;;;;;;;5070281;28;20045;-66
2023/04/26 08:18:29;;;;;;;5.95;1.05;;;;;;;;;;5068689;28;20051;-65
2023/04/26 08:20:55;;;;;;;1.83;0.90;;;;;;;;;;5070321;28;20123;-66
2023/04/26 08:23:21;;;;;;;2.65;1.08;;;;;;;;;;5047853;28;20120;-66
2023/04/26 08:25:48;;;;;;;6.50;1.05;;;;;;;;;;5065332;28;20057;-65
2023/04/26 08:28:15;;;;;;;5.05;0.90;;;;;;;;;;5049741;28;20042;-66
2023/04/26 08:30:41;;;;;;;6.43;1.60;;;;;;;;;;5068327;28;20081;-66
2023/04/26 08:33:08;;;;;;;4.35;1.00;;;;;;;;;;5071853;28;20135;-66
2023/04/26 08:35:34;;;;;;;7.88;1.10;;;;;;;;;;5052654;28;20098;-66
2023/04/26 08:38:01;;;;;;;5.47;2.22;;;;;;;;;;5079521;28;20044;-65
2023/04/26 08:40:27;;;;;;;3.20;0.90;;;;;;;;;;5053013;28;20082;-66
2023/04/26 08:42:53;;;;;;;10.00;1.33;;;;;;;;;;5053952;28;20131;-66
2023/04/26 08:45:20;;;;;;;3.42;1.30;;;;;;;;;;5050053;28;20040;-66
2023/04/26 08:48:13;;;;;;;4.68;1.30;;;;;;;;;;5065131;28;20183;-66
2023/04/26 08:50:40;;;;;;;8.18;1.30;;;;;;;;;;5052473;28;20049;-66
2023/04/26 08:53:06;;;;;;;12.23;1.50;;;;;;;;;;5031692;28;20041;-66
2023/04/26 08:55:33;;;;;;;8.35;1.50;;;;;;;;;;5053515;28;20047;-66
2023/04/26 08:58:00;;;;;;;9.60;1.38;;;;;;;;;;5069697;28;20067;-66
2023/04/26 09:00:26;;;;;;;5.40;1.27;;;;;;;;;;5036692;28;20056;-66
2023/04/26 09:02:52;;;;;;;11.48;2.33;;;;;;;;;;5037728;28;20048;-66
2023/04/26 09:05:23;;;;;;;7.20;1.23;;;;;;;;;;5066645;28;20497;-66
2023/04/26 09:07:50;;;;;;;5.20;1.30;;;;;;;;;;5036809;28;20055;-66
2023/04/26 09:10:22;;;;;;;6.45;1.38;;;;;;;;;;5080666;28;20070;-65
2023/04/26 09:12:55;;;;;;;7.45;1.90;;;;;;;;;;5035110;28;20044;-66
2023/04/26 09:15:22;;;;;;;2.78;1.10;;;;;;;;;;5037921;28;20040;-64
2023/04/26 09:17:50;;;;;;;4.13;1.63;;;;;;;;;;5050617;28;20043;-65
2023/04/26 09:20:20;;;;;;;4.07;1.33;;;;;;;;;;5058870;28;20448;-66
2023/04/26 09:22:46;;;;;;;4.40;0.98;;;;;;;;;;5045240;28;20044;-66
2023/04/26 09:25:13;;;;;;;4.13;1.92;;;;;;;;;;5069593;28;20044;-65
2023/04/26 09:27:40;;;;;;;7.90;1.23;;;;;;;;;;5034381;28;20086;-66
2023/04/26 09:30:11;;;;;;;4.82;1.23;;;;;;;;;;5030205;28;20080;-65
2023/04/26 09:32:46;;;;;;;2.80;0.93;;;;;;;;;;5033039;28;20131;-65
2023/04/26 09:35:22;;;;;;;4.10;1.15;;;;;;;;;;5035373;28;20519;-66
2023/04/26 09:38:08;;;;;;;3.83;1.70;;;;;;;;;;5073291;28;20087;-65
2023/04/26 09:40:39;;;;;;;4.78;1.13;;;;;;;;;;5049881;28;20048;-65
2023/04/26 09:43:07;;;;;;;2.85;1.02;;;;;;;;;;5052175;28;20052;-66
2023/04/26 09:45:42;;;;;;;2.75;1.00;;;;;;;;;;5046335;28;20051;-65
2023/04/26 09:48:16;;;;;;;5.95;1.77;;;;;;;;;;5040947;28;20048;-66
2023/04/26 09:50:44;;;;;;;4.97;1.23;;;;;;;;;;5039894;28;20052;-64
2023/04/26 09:53:10;;;;;;;3.03;1.00;;;;;;;;;;5035215;28;20044;-64
2023/04/26 09:55:36;;;;;;;2.33;0.90;;;;;;;;;;5055555;28;20457;-64
2023/04/26 09:58:09;;;;;;;8.82;1.70;;;;;;;;;;5053313;28;20516;-64
2023/04/26 10:00:36;;;;;;;7.55;1.67;;;;;;;;;;5052925;28;20056;-64
2023/04/26 10:03:03;;;;;;;2.75;1.25;;;;;;;;;;5038932;28;20044;-65
2023/04/26 10:05:31;;;;;;;7.45;1.50;;;;;;;;;;5073365;28;20045;-65
2023/04/26 10:07:57;;;;;;;4.05;1.50;;;;;;;;;;5081535;28;20453;-65
2023/04/26 10:10:23;;;;;;;4.88;1.55;;;;;;;;;;5074405;28;20123;-64
2023/04/26 10:12:50;;;;;;;3.10;1.40;;;;;;;;;;5040577;28;20501;-65
2023/04/26 10:15:16;;;;;;;5.47;1.42;;;;;;;;;;5056855;28;20143;-64
2023/04/26 10:17:42;;;;;;;4.43;1.15;;;;;;;;;;5055861;28;20044;-64
2023/04/26 10:20:10;;;;;;;6.38;1.75;;;;;;;;;;5033923;28;20492;-64
2023/04/26 10:22:43;;;;;;;4.75;1.40;;;;;;;;;;5018606;22;20044;31
2023/04/26 10:25:09;;;;;;;8.07;2.85;;;;;;;;;;5012959;28;20119;-65
2023/04/26 10:27:44;;;;;;;5.53;2.20;;;;;;;;;;5008306;28;20045;-63
2023/04/26 10:30:12;;;;;;;3.72;0.90;;;;;;;;;;4995634;28;20095;-65
2023/04/26 10:32:57;;;;;;;5.85;1.45;;;;;;;;;;5015237;28;20517;-66
2023/04/26 10:35:24;;;;;;;5.32;1.33;;;;;;;;;;5012543;28;20082;-66
2023/04/26 10:38:17;;;;;;;7.65;1.42;;;;;;;;;;5014916;28;20053;-65
2023/04/26 10:40:44;;;;;;;7.35;1.08;;;;;;;;;;4998141;28;20056;-64
2023/04/26 10:43:18;;;;;;;4.85;1.50;;;;;;;;;;5000802;28;20049;-66
2023/04/26 10:48:36;;;;;;;4.82;1.80;;;;;;;;;;5044034;22;22017;-65
2023/04/26 10:51:09;;;;;;;6.07;1.70;;;;;;;;;;4978031;28;20046;-65
2023/04/26 10:53:35;;;;;;;5.43;2.92;;;;;;;;;;4977169;28;20487;-63
2023/04/26 10:56:01;;;;;;;4.93;2.22;;;;;;;;;;4997642;28;20104;-65
2023/04/26 10:58:27;;;;;;;7.07;1.50;;;;;;;;;;4979332;28;20050;-65
2023/04/26 11:01:04;;;;;;;8.48;1.75;;;;;;;;;;4999795;28;20052;-66
2023/04/26 11:03:30;;;;;;;5.57;1.67;;;;;;;;;;4976952;28;20649;-65
2023/04/26 11:05:56;;;;;;;5.15;1.63;;;;;;;;;;4992676;28;20486;-65
2023/04/26 11:08:27;;;;;;;5.65;1.55;;;;;;;;;;4977229;28;20042;-64
2023/04/26 11:10:56;;;;;;;5.28;1.20;;;;;;;;;;4977186;28;20046;-65
2023/04/26 11:13:22;;;;;;;5.57;2.83;;;;;;;;;;4994366;28;20038;-65
2023/04/26 11:15:59;;;;;;;5.68;1.40;;;;;;;;;;4992983;28;20038;-66
2023/04/26 11:18:25;;;;;;;8.20;2.45;;;;;;;;;;4973767;28;20130;-65
2023/04/26 11:20:51;;;;;;;8.25;1.80;;;;;;;;;;4975495;28;20100;-64
2023/04/26 11:23:18;;;;;;;6.82;2.95;;;;;;;;;;4982184;28;20042;-65
2023/04/26 11:25:44;;;;;;;7.10;1.30;;;;;;;;;;4960624;28;20045;-65
2023/04/26 11:28:11;;;;;;;6.75;1.80;;;;;;;;;;4992776;28;20049;-63
2023/04/26 11:30:37;;;;;;;6.90;1.90;;;;;;;;;;4984434;28;20070;-65
2023/04/26 11:33:04;;;;;;;8.07;1.95;;;;;;;;;;4977465;28;20061;-65
2023/04/26 11:35:33;;;;;;;7.80;2.13;;;;;;;;;;4975975;28;20049;-65
2023/04/26 11:37:59;;;;;;;4.90;1.55;;;;;;;;;;4951787;28;20042;-65
2023/04/26 11:40:32;;;;;;;5.88;2.30;;;;;;;;;;4972978;28;20188;-65
2023/04/26 11:43:00;;;;;;;6.25;3.05;;;;;;;;;;4991445;28;20133;-65
2023/04/26 11:45:26;;;;;;;3.78;1.88;;;;;;;;;;4992931;28;20108;-66
2023/04/26 11:47:52;;;;;;;5.60;1.92;;;;;;;;;;4949491;28;20090;-66
2023/04/26 11:50:19;;;;;;;10.18;2.20;;;;;;;;;;4989064;28;20409;-66
2023/04/26 11:52:45;;;;;;;5.18;1.98;;;;;;;;;;5030191;28;20045;-66
2023/04/26 11:55:11;;;;;;;4.60;1.77;;;;;;;;;;4994729;28;20056;-63
2023/04/26 11:57:37;;;;;;;5.82;1.90;;;;;;;;;;5016587;28;20110;-66
2023/04/26 12:00:10;;;;;;;8.70;2.10;;;;;;;;;;5005233;28;20053;-66
2023/04/26 12:02:36;;;;;;;4.97;2.05;;;;;;;;;;5028416;28;20045;-65
2023/04/26 12:05:03;;;;;;;2.97;1.80;;;;;;;;;;5021359;28;20050;-66
2023/04/26 12:07:36;;;;;;;6.15;1.27;;;;;;;;;;5021826;28;20508;-66
2023/04/26 12:10:35;;;;;;;6.40;2.30;;;;;;;;;;4994194;28;20418;-66
2023/04/26 12:13:01;;;;;;;5.05;1.70;;;;;;;;;;4988795;28;20180;-65
2023/04/26 12:15:32;;;;;;;6.63;1.80;;;;;;;;;;5011211;28;20381;-65
2023/04/26 12:17:59;;;;;;;4.93;1.70;;;;;;;;;;5011026;28;20041;-66
2023/04/26 12:20:26;;;;;;;6.25;1.83;;;;;;;;;;5018183;28;20058;-66
2023/04/26 12:23:02;;;;;;;3.83;1.63;;;;;;;;;;5007755;28;20045;-66
2023/04/26 12:25:29;;;;;;;6.90;2.70;;;;;;;;;;4991480;28;20486;-66
2023/04/26 12:27:57;;;;;;;8.35;1.67;;;;;;;;;;5027097;28;20486;-66
2023/04/26 12:30:23;;;;;;;3.58;1.50;;;;;;;;;;5021044;28;20370;-66
2023/04/26 12:32:49;;;;;;;4.82;1.60;;;;;;;;;;5010574;28;20141;-65
2023/04/26 12:35:15;;;;;;;8.35;1.73;;;;;;;;;;4995418;28;20065;-65
2023/04/26 12:37:41;;;;;;;5.10;1.40;;;;;;;;;;5011678;28;20046;-66
2023/04/26 12:40:08;;;;;;;6.53;1.83;;;;;;;;;;4996269;28;20482;-66
2023/04/26 12:42:35;;;;;;;6.97;1.52;;;;;;;;;;5012348;28;20045;-65
2023/04/26 12:45:01;;;;;;;5.70;1.70;;;;;;;;;;5003179;28;20042;-65
2023/04/26 12:47:27;;;;;;;4.97;1.77;;;;;;;;;;5013748;28;20438;-66
2023/04/26 12:49:59;;;;;;;6.22;1.52;;;;;;;;;;4994594;28;20058;-65
2023/04/26 12:52:25;;;;;;;5.03;1.50;;;;;;;;;;5011697;28;20052;-66
2023/04/26 12:54:51;;;;;;;5.60;1.40;;;;;;;;;;5013925;28;20137;-66
2023/04/26 12:57:17;;;;;;;7.20;2.17;;;;;;;;;;5004286;28;20121;-66
2023/04/26 12:59:43;;;;;;;5.15;1.50;;;;;;;;;;5011705;28;20413;-66
2023/04/26 13:02:09;;;;;;;4.75;1.80;;;;;;;;;;5009395;28;20049;-66
2023/04/26 13:04:35;;;;;;;4.68;1.30;;;;;;;;;;5023154;28;20073;-66
2023/04/26 13:07:01;;;;;;;5.07;1.30;;;;;;;;;;4995510;28;20061;-66
2023/04/26 13:09:27;;;;;;;3.80;1.45;;;;;;;;;;5010119;28;20046;-66
2023/04/26 13:11:53;;;;;;;5.03;1.50;;;;;;;;;;5012863;28;20103;-66
2023/04/26 13:14:22;;;;;;;5.63;1.33;;;;;;;;;;5003303;28;20041;-65
2023/04/26 13:16:48;;;;;;;4.38;1.58;;;;;;;;;;5012484;28;20037;-66
2023/04/26 13:19:14;;;;;;;8.57;1.50;;;;;;;;;;5000998;28;20046;-66
2023/04/26 13:21:41;;;;;;;6.97;1.67;;;;;;;;;;5016027;28;20433;-67
2023/04/26 13:24:07;;;;;;;4.88;1.40;;;;;;;;;;4978190;28;20466;-68
2023/04/26 13:26:33;;;;;;;3.90;1.40;;;;;;;;;;5030326;28;20470;-74
2023/04/26 13:28:59;;;;;;;4.43;1.65;;;;;;;;;;5016818;28;20042;-73
2023/04/26 13:31:25;;;;;;;4.57;1.75;;;;;;;;;;5006857;28;20046;-73
2023/04/26 13:33:51;;;;;;;6.70;1.60;;;;;;;;;;5010735;28;20045;-73
2023/04/26 13:36:17;;;;;;;4.43;1.73;;;;;;;;;;5012095;28;20046;-72
2023/04/26 13:38:44;;;;;;;4.28;1.30;;;;;;;;;;5008128;28;20463;-73
2023/04/26 13:41:10;;;;;;;7.18;1.77;;;;;;;;;;5004630;28;20046;-75
2023/04/26 13:43:36;;;;;;;4.47;1.40;;;;;;;;;;5010026;28;20046;-71
2023/04/26 13:46:02;;;;;;;6.68;1.92;;;;;;;;;;4990938;28;20391;-71
2023/04/26 13:48:28;;;;;;;7.20;1.55;;;;;;;;;;5002132;28;20111;-69
2023/04/26 13:50:55;;;;;;;4.10;1.75;;;;;;;;;;4992358;28;20458;-72
2023/04/26 13:53:21;;;;;;;9.68;1.80;;;;;;;;;;4958179;28;20066;-74
2023/04/26 13:55:48;;;;;;;4.45;1.40;;;;;;;;;;4988348;28;20065;-72
2023/04/26 13:58:14;;;;;;;3.42;1.30;;;;;;;;;;4997883;28;20053;-75
2023/04/26 14:00:40;;;;;;;4.55;1.50;;;;;;;;;;4969487;28;20462;-73
2023/04/26 14:03:06;;;;;;;4.55;1.27;;;;;;;;;;4977278;28;20035;-75
2023/04/26 14:05:32;;;;;;;6.28;1.70;;;;;;;;;;4970608;28;20042;-76
2023/04/26 14:07:59;;;;;;;6.40;1.50;;;;;;;;;;4983915;28;20536;-74
2023/04/26 14:10:25;;;;;;;5.28;1.50;;;;;;;;;;4951273;28;20136;-73
2023/04/26 14:12:51;;;;;;;9.52;1.80;;;;;;;;;;4960316;28;20459;-76
2023/04/26 14:15:17;;;;;;;4.30;1.70;;;;;;;;;;4981905;28;20033;-69
2023/04/26 14:17:45;;;;;;;8.30;1.55;;;;;;;;;;4976597;28;20038;-74
2023/04/26 14:20:11;;;;;;;6.55;1.60;;;;;;;;;;4993936;28;20046;-67
2023/04/26 14:22:37;;;;;;;4.65;1.50;;;;;;;;;;4958393;28;20096;-75
2023/04/26 14:25:04;;;;;;;6.20;1.85;;;;;;;;;;4995417;28;20050;-75
2023/04/26 14:27:30;;;;;;;3.45;1.45;;;;;;;;;;5011547;28;20101;-75
2023/04/26 14:29:56;;;;;;;5.50;2.20;;;;;;;;;;4963588;28;20030;-74
2023/04/26 14:32:22;;;;;;;5.97;1.10;;;;;;;;;;4972613;28;20077;-74
2023/04/26 14:34:49;;;;;;;4.10;1.23;;;;;;;;;;4961380;28;20073;-76
2023/04/26 14:37:15;;;;;;;8.60;1.20;;;;;;;;;;4974659;28;20784;-75
2023/04/26 14:39:41;;;;;;;2.58;1.27;;;;;;;;;;4992910;28;20121;-73
2023/04/26 14:42:07;;;;;;;3.33;1.30;;;;;;;;;;4993968;28;20451;-73
2023/04/26 14:44:33;;;;;;;6.47;1.92;;;;;;;;;;4970553;28;20061;-80